sensor_id;sensor_type;location;lat;lon;timestamp;temperature;humidity
32201;DHT22;18701;45.588;5.288;2024-02-04T00:01:40;5.40;99.90
32201;DHT22;18701;45.588;5.288;2024-02-04T00:04:06;5.60;99.90
32201;DHT22;18701;45.588;5.288;2024-02-04T00:06:31;5.40;99.90
32201;DHT22;18701;45.588;5.288;2024-02-04T00:08:57;5.30;99.90
32201;DHT22;18701;45.588;5.288;2024-02-04T00:11:23;5.30;99.90
32201;DHT22;18701;45.588;5.288;2024-02-04T00:13:48;5.30;99.90
32201;DHT22;18701;45.588;5.288;2024-02-04T00:16:14;5.10;99.90
32201;DHT22;18701;45.588;5.288;2024-02-04T00:18:40;5.20;99.90
32201;DHT22;18701;45.588;5.288;2024-02-04T00:21:05;5.20;99.90
32201;DHT22;18701;45.588;5.288;2024-02-04T00:23:31;5.30;99.90
32201;DHT22;18701;45.588;5.288;2024-02-04T00:25:57;5.40;99.90
32201;DHT22;18701;45.588;5.288;2024-02-04T00:28:22;5.20;99.90
32201;DHT22;18701;45.588;5.288;2024-02-04T00:30:48;5.00;99.90
32201;DHT22;18701;45.588;5.288;2024-02-04T00:33:20;5.10;99.90
32201;DHT22;18701;45.588;5.288;2024-02-04T00:35:46;5.20;99.90
32201;DHT22;18701;45.588;5.288;2024-02-04T00:38:12;5.20;99.90
32201;DHT22;18701;45.588;5.288;2024-02-04T00:40:37;5.40;99.90
32201;DHT22;18701;45.588;5.288;2024-02-04T00:43:03;5.20;99.90
32201;DHT22;18701;45.588;5.288;2024-02-04T00:45:29;5.20;99.90
32201;DHT22;18701;45.588;5.288;2024-02-04T00:47:54;5.20;99.90
32201;DHT22;18701;45.588;5.288;2024-02-04T00:50:20;5.20;99.90
32201;DHT22;18701;45.588;5.288;2024-02-04T00:52:46;5.10;99.90
32201;DHT22;18701;45.588;5.288;2024-02-04T00:55:11;4.80;99.90
32201;DHT22;18701;45.588;5.288;2024-02-04T00:57:37;4.90;99.90
32201;DHT22;18701;45.588;5.288;2024-02-04T01:00:03;4.80;99.90
32201;DHT22;18701;45.588;5.288;2024-02-04T01:02:29;4.80;99.90
32201;DHT22;18701;45.588;5.288;2024-02-04T01:04:55;4.70;99.90
32201;DHT22;18701;45.588;5.288;2024-02-04T01:07:21;4.80;99.90
32201;DHT22;18701;45.588;5.288;2024-02-04T01:09:47;4.70;99.90
32201;DHT22;18701;45.588;5.288;2024-02-04T01:12:14;4.40;99.90
32201;DHT22;18701;45.588;5.288;2024-02-04T01:14:40;4.40;99.90
32201;DHT22;18701;45.588;5.288;2024-02-04T01:17:06;4.70;99.90
32201;DHT22;18701;45.588;5.288;2024-02-04T01:19:32;4.90;99.90
32201;DHT22;18701;45.588;5.288;2024-02-04T01:21:58;4.90;99.90
32201;DHT22;18701;45.588;5.288;2024-02-04T01:24:24;5.10;99.90
32201;DHT22;18701;45.588;5.288;2024-02-04T01:26:50;4.80;99.90
32201;DHT22;18701;45.588;5.288;2024-02-04T01:29:16;4.80;99.90
32201;DHT22;18701;45.588;5.288;2024-02-04T01:31:42;4.90;99.90
32201;DHT22;18701;45.588;5.288;2024-02-04T01:34:08;4.90;99.90
32201;DHT22;18701;45.588;5.288;2024-02-04T01:36:33;4.90;99.90
32201;DHT22;18701;45.588;5.288;2024-02-04T01:38:59;4.90;99.90
32201;DHT22;18701;45.588;5.288;2024-02-04T01:41:24;4.80;99.90
32201;DHT22;18701;45.588;5.288;2024-02-04T01:43:53;4.80;99.90
32201;DHT22;18701;45.588;5.288;2024-02-04T01:46:19;4.70;99.90
32201;DHT22;18701;45.588;5.288;2024-02-04T01:48:44;4.60;99.90
32201;DHT22;18701;45.588;5.288;2024-02-04T01:51:10;4.50;99.90
32201;DHT22;18701;45.588;5.288;2024-02-04T01:53:38;4.50;99.90
32201;DHT22;18701;45.588;5.288;2024-02-04T01:56:05;4.50;99.90
32201;DHT22;18701;45.588;5.288;2024-02-04T01:58:32;4.70;99.90
32201;DHT22;18701;45.588;5.288;2024-02-04T02:00:58;4.80;99.90
32201;DHT22;18701;45.588;5.288;2024-02-04T02:03:24;5.00;99.90
32201;DHT22;18701;45.588;5.288;2024-02-04T02:05:51;4.70;99.90
32201;DHT22;18701;45.588;5.288;2024-02-04T02:08:17;4.90;99.90
32201;DHT22;18701;45.588;5.288;2024-02-04T02:10:46;4.90;99.90
32201;DHT22;18701;45.588;5.288;2024-02-04T02:13:23;4.90;99.90
32201;DHT22;18701;45.588;5.288;2024-02-04T02:16:04;5.00;99.90
32201;DHT22;18701;45.588;5.288;2024-02-04T02:24:25;5.00;99.90
32201;DHT22;18701;45.588;5.288;2024-02-04T02:26:52;5.10;99.90
32201;DHT22;18701;45.588;5.288;2024-02-04T02:29:18;4.90;99.90
32201;DHT22;18701;45.588;5.288;2024-02-04T02:31:44;5.10;99.90
32201;DHT22;18701;45.588;5.288;2024-02-04T02:34:10;5.10;99.90
32201;DHT22;18701;45.588;5.288;2024-02-04T02:36:54;5.20;99.90
32201;DHT22;18701;45.588;5.288;2024-02-04T02:39:24;5.00;99.90
32201;DHT22;18701;45.588;5.288;2024-02-04T02:41:54;5.00;99.90
32201;DHT22;18701;45.588;5.288;2024-02-04T02:44:21;4.90;99.90
32201;DHT22;18701;45.588;5.288;2024-02-04T02:46:49;5.00;99.90
32201;DHT22;18701;45.588;5.288;2024-02-04T02:49:15;4.80;99.90
32201;DHT22;18701;45.588;5.288;2024-02-04T02:51:41;4.80;99.90
32201;DHT22;18701;45.588;5.288;2024-02-04T02:54:06;4.70;99.90
32201;DHT22;18701;45.588;5.288;2024-02-04T02:56:32;4.60;99.90
32201;DHT22;18701;45.588;5.288;2024-02-04T02:58:57;4.80;99.90
32201;DHT22;18701;45.588;5.288;2024-02-04T03:01:23;5.00;99.90
32201;DHT22;18701;45.588;5.288;2024-02-04T03:03:49;4.80;99.90
32201;DHT22;18701;45.588;5.288;2024-02-04T03:06:15;4.90;99.90
32201;DHT22;18701;45.588;5.288;2024-02-04T03:08:40;4.60;99.90
32201;DHT22;18701;45.588;5.288;2024-02-04T03:11:06;4.60;99.90
32201;DHT22;18701;45.588;5.288;2024-02-04T03:13:31;4.50;99.90
32201;DHT22;18701;45.588;5.288;2024-02-04T03:15:57;4.50;99.90
32201;DHT22;18701;45.588;5.288;2024-02-04T03:18:23;4.60;99.90
32201;DHT22;18701;45.588;5.288;2024-02-04T03:20:48;4.60;99.90
32201;DHT22;18701;45.588;5.288;2024-02-04T03:23:14;4.50;99.90
32201;DHT22;18701;45.588;5.288;2024-02-04T03:25:40;4.60;99.90
32201;DHT22;18701;45.588;5.288;2024-02-04T03:28:05;4.40;99.90
32201;DHT22;18701;45.588;5.288;2024-02-04T03:30:31;4.60;99.90
32201;DHT22;18701;45.588;5.288;2024-02-04T03:32:56;4.30;99.90
32201;DHT22;18701;45.588;5.288;2024-02-04T03:35:22;4.40;99.90
32201;DHT22;18701;45.588;5.288;2024-02-04T03:37:47;4.30;99.90
32201;DHT22;18701;45.588;5.288;2024-02-04T03:40:13;4.40;99.90
32201;DHT22;18701;45.588;5.288;2024-02-04T03:42:39;4.40;99.90
32201;DHT22;18701;45.588;5.288;2024-02-04T03:45:06;4.50;99.90
32201;DHT22;18701;45.588;5.288;2024-02-04T03:47:32;4.30;99.90
32201;DHT22;18701;45.588;5.288;2024-02-04T03:49:57;4.30;99.90
32201;DHT22;18701;45.588;5.288;2024-02-04T03:52:23;4.40;99.90
32201;DHT22;18701;45.588;5.288;2024-02-04T03:54:48;4.50;99.90
32201;DHT22;18701;45.588;5.288;2024-02-04T03:57:14;4.50;99.90
32201;DHT22;18701;45.588;5.288;2024-02-04T03:59:40;4.40;99.90
32201;DHT22;18701;45.588;5.288;2024-02-04T04:02:05;4.50;99.90
32201;DHT22;18701;45.588;5.288;2024-02-04T04:04:31;4.50;99.90
32201;DHT22;18701;45.588;5.288;2024-02-04T04:06:56;4.70;99.90
32201;DHT22;18701;45.588;5.288;2024-02-04T04:09:22;4.70;99.90
32201;DHT22;18701;45.588;5.288;2024-02-04T04:11:48;4.70;99.90
32201;DHT22;18701;45.588;5.288;2024-02-04T04:14:14;4.70;99.90
32201;DHT22;18701;45.588;5.288;2024-02-04T04:16:39;4.80;99.90
32201;DHT22;18701;45.588;5.288;2024-02-04T04:19:05;4.70;99.90
32201;DHT22;18701;45.588;5.288;2024-02-04T04:21:30;4.60;99.90
32201;DHT22;18701;45.588;5.288;2024-02-04T04:23:56;4.50;99.90
32201;DHT22;18701;45.588;5.288;2024-02-04T04:26:22;4.60;99.90
32201;DHT22;18701;45.588;5.288;2024-02-04T04:28:47;4.50;99.90
32201;DHT22;18701;45.588;5.288;2024-02-04T04:31:13;4.50;99.90
32201;DHT22;18701;45.588;5.288;2024-02-04T04:33:38;4.60;99.90
32201;DHT22;18701;45.588;5.288;2024-02-04T04:36:04;4.70;99.90
32201;DHT22;18701;45.588;5.288;2024-02-04T04:38:30;4.70;99.90
32201;DHT22;18701;45.588;5.288;2024-02-04T04:40:55;4.70;99.90
32201;DHT22;18701;45.588;5.288;2024-02-04T04:43:21;4.60;99.90
32201;DHT22;18701;45.588;5.288;2024-02-04T04:45:47;4.70;99.90
32201;DHT22;18701;45.588;5.288;2024-02-04T04:48:12;4.70;99.90
32201;DHT22;18701;45.588;5.288;2024-02-04T04:50:38;4.80;99.90
32201;DHT22;18701;45.588;5.288;2024-02-04T04:53:04;4.70;99.90
32201;DHT22;18701;45.588;5.288;2024-02-04T04:55:29;4.60;99.90
32201;DHT22;18701;45.588;5.288;2024-02-04T04:57:55;4.40;99.90
32201;DHT22;18701;45.588;5.288;2024-02-04T05:00:21;4.50;99.90
32201;DHT22;18701;45.588;5.288;2024-02-04T05:02:46;4.50;99.90
32201;DHT22;18701;45.588;5.288;2024-02-04T05:05:13;4.40;99.90
32201;DHT22;18701;45.588;5.288;2024-02-04T05:07:39;4.50;99.90
32201;DHT22;18701;45.588;5.288;2024-02-04T05:10:06;4.50;99.90
32201;DHT22;18701;45.588;5.288;2024-02-04T05:12:33;4.60;99.90
32201;DHT22;18701;45.588;5.288;2024-02-04T05:14:59;4.50;99.90
32201;DHT22;18701;45.588;5.288;2024-02-04T05:17:26;4.40;99.90
32201;DHT22;18701;45.588;5.288;2024-02-04T05:19:52;4.30;99.90
32201;DHT22;18701;45.588;5.288;2024-02-04T05:22:18;4.40;99.90
32201;DHT22;18701;45.588;5.288;2024-02-04T05:24:43;4.30;99.90
32201;DHT22;18701;45.588;5.288;2024-02-04T05:27:09;4.50;99.90
32201;DHT22;18701;45.588;5.288;2024-02-04T05:29:35;4.70;99.90
32201;DHT22;18701;45.588;5.288;2024-02-04T05:32:01;4.60;99.90
32201;DHT22;18701;45.588;5.288;2024-02-04T05:34:27;4.70;99.90
32201;DHT22;18701;45.588;5.288;2024-02-04T05:36:52;4.60;99.90
32201;DHT22;18701;45.588;5.288;2024-02-04T05:39:18;4.60;99.90
32201;DHT22;18701;45.588;5.288;2024-02-04T05:41:47;4.70;99.90
32201;DHT22;18701;45.588;5.288;2024-02-04T05:44:12;4.80;99.90
32201;DHT22;18701;45.588;5.288;2024-02-04T05:46:38;4.80;99.90
32201;DHT22;18701;45.588;5.288;2024-02-04T05:49:04;4.80;99.90
32201;DHT22;18701;45.588;5.288;2024-02-04T05:51:38;4.50;99.90
32201;DHT22;18701;45.588;5.288;2024-02-04T05:54:04;4.50;99.90
32201;DHT22;18701;45.588;5.288;2024-02-04T05:56:30;4.40;99.90
32201;DHT22;18701;45.588;5.288;2024-02-04T05:58:56;4.60;99.90
32201;DHT22;18701;45.588;5.288;2024-02-04T06:01:21;4.80;99.90
32201;DHT22;18701;45.588;5.288;2024-02-04T06:03:47;4.70;99.90
32201;DHT22;18701;45.588;5.288;2024-02-04T06:06:16;4.70;99.90
32201;DHT22;18701;45.588;5.288;2024-02-04T06:08:43;4.70;99.90
32201;DHT22;18701;45.588;5.288;2024-02-04T06:11:12;4.60;99.90
32201;DHT22;18701;45.588;5.288;2024-02-04T06:13:40;4.80;99.90
32201;DHT22;18701;45.588;5.288;2024-02-04T06:16:06;4.90;99.90
32201;DHT22;18701;45.588;5.288;2024-02-04T06:18:31;5.00;99.90
32201;DHT22;18701;45.588;5.288;2024-02-04T06:20:57;4.80;99.90
32201;DHT22;18701;45.588;5.288;2024-02-04T06:23:23;4.70;99.90
32201;DHT22;18701;45.588;5.288;2024-02-04T06:25:48;4.70;99.90
32201;DHT22;18701;45.588;5.288;2024-02-04T06:28:14;4.70;99.90
32201;DHT22;18701;45.588;5.288;2024-02-04T06:30:40;4.90;99.90
32201;DHT22;18701;45.588;5.288;2024-02-04T06:33:05;4.80;99.90
32201;DHT22;18701;45.588;5.288;2024-02-04T06:35:32;4.80;99.90
32201;DHT22;18701;45.588;5.288;2024-02-04T06:37:58;4.70;99.90
32201;DHT22;18701;45.588;5.288;2024-02-04T06:40:23;4.60;99.90
32201;DHT22;18701;45.588;5.288;2024-02-04T06:42:49;4.60;99.90
32201;DHT22;18701;45.588;5.288;2024-02-04T06:45:14;4.50;99.90
32201;DHT22;18701;45.588;5.288;2024-02-04T06:47:43;4.60;99.90
32201;DHT22;18701;45.588;5.288;2024-02-04T06:50:10;4.50;99.90
32201;DHT22;18701;45.588;5.288;2024-02-04T06:52:42;4.50;99.90
32201;DHT22;18701;45.588;5.288;2024-02-04T06:55:09;4.50;99.90
32201;DHT22;18701;45.588;5.288;2024-02-04T06:57:35;4.60;99.90
32201;DHT22;18701;45.588;5.288;2024-02-04T07:00:01;4.60;99.90
32201;DHT22;18701;45.588;5.288;2024-02-04T07:02:27;4.60;99.90
32201;DHT22;18701;45.588;5.288;2024-02-04T07:04:52;4.50;99.90
32201;DHT22;18701;45.588;5.288;2024-02-04T07:07:18;4.40;99.90
32201;DHT22;18701;45.588;5.288;2024-02-04T07:09:44;4.50;99.90
32201;DHT22;18701;45.588;5.288;2024-02-04T07:12:09;4.50;99.90
32201;DHT22;18701;45.588;5.288;2024-02-04T07:14:35;4.50;99.90
32201;DHT22;18701;45.588;5.288;2024-02-04T07:17:01;4.60;99.90
32201;DHT22;18701;45.588;5.288;2024-02-04T07:19:26;4.60;99.90
32201;DHT22;18701;45.588;5.288;2024-02-04T07:21:52;4.60;99.90
32201;DHT22;18701;45.588;5.288;2024-02-04T07:24:18;4.70;99.90
32201;DHT22;18701;45.588;5.288;2024-02-04T07:26:45;4.80;99.90
32201;DHT22;18701;45.588;5.288;2024-02-04T07:29:12;4.60;99.90
32201;DHT22;18701;45.588;5.288;2024-02-04T07:31:37;4.50;99.90
32201;DHT22;18701;45.588;5.288;2024-02-04T07:34:03;4.60;99.90
32201;DHT22;18701;45.588;5.288;2024-02-04T07:36:30;4.60;99.90
32201;DHT22;18701;45.588;5.288;2024-02-04T07:38:55;4.60;99.90
32201;DHT22;18701;45.588;5.288;2024-02-04T07:41:21;4.60;99.90
32201;DHT22;18701;45.588;5.288;2024-02-04T07:43:47;4.50;99.90
32201;DHT22;18701;45.588;5.288;2024-02-04T07:46:13;4.50;99.90
32201;DHT22;18701;45.588;5.288;2024-02-04T07:48:39;4.50;99.90
32201;DHT22;18701;45.588;5.288;2024-02-04T07:51:05;4.50;99.90
32201;DHT22;18701;45.588;5.288;2024-02-04T07:53:31;4.60;99.90
32201;DHT22;18701;45.588;5.288;2024-02-04T07:55:57;4.80;99.90
32201;DHT22;18701;45.588;5.288;2024-02-04T07:58:23;4.70;99.90
32201;DHT22;18701;45.588;5.288;2024-02-04T08:00:48;4.80;99.90
32201;DHT22;18701;45.588;5.288;2024-02-04T08:03:14;4.90;99.90
32201;DHT22;18701;45.588;5.288;2024-02-04T08:05:39;4.70;99.90
32201;DHT22;18701;45.588;5.288;2024-02-04T08:08:05;4.60;99.90
32201;DHT22;18701;45.588;5.288;2024-02-04T08:10:31;4.70;99.90
32201;DHT22;18701;45.588;5.288;2024-02-04T08:12:56;4.70;99.90
32201;DHT22;18701;45.588;5.288;2024-02-04T08:15:22;4.80;99.90
32201;DHT22;18701;45.588;5.288;2024-02-04T08:17:48;4.70;99.90
32201;DHT22;18701;45.588;5.288;2024-02-04T08:20:14;4.90;99.90
32201;DHT22;18701;45.588;5.288;2024-02-04T08:22:39;4.90;99.90
32201;DHT22;18701;45.588;5.288;2024-02-04T08:25:05;4.60;99.90
32201;DHT22;18701;45.588;5.288;2024-02-04T08:27:31;4.70;99.90
32201;DHT22;18701;45.588;5.288;2024-02-04T08:29:57;4.60;99.90
32201;DHT22;18701;45.588;5.288;2024-02-04T08:32:22;4.70;99.90
32201;DHT22;18701;45.588;5.288;2024-02-04T08:34:48;4.70;99.90
32201;DHT22;18701;45.588;5.288;2024-02-04T08:37:16;4.70;99.90
32201;DHT22;18701;45.588;5.288;2024-02-04T08:39:42;4.80;99.90
32201;DHT22;18701;45.588;5.288;2024-02-04T08:42:08;4.90;99.90
32201;DHT22;18701;45.588;5.288;2024-02-04T08:44:33;4.80;99.90
32201;DHT22;18701;45.588;5.288;2024-02-04T08:46:59;4.90;99.90
32201;DHT22;18701;45.588;5.288;2024-02-04T08:49:25;4.90;99.90
32201;DHT22;18701;45.588;5.288;2024-02-04T08:51:50;5.00;99.90
32201;DHT22;18701;45.588;5.288;2024-02-04T08:54:16;5.00;99.90
32201;DHT22;18701;45.588;5.288;2024-02-04T08:56:43;5.10;99.90
32201;DHT22;18701;45.588;5.288;2024-02-04T08:59:08;5.10;99.90
32201;DHT22;18701;45.588;5.288;2024-02-04T09:01:34;5.10;99.90
32201;DHT22;18701;45.588;5.288;2024-02-04T09:03:59;4.80;99.90
32201;DHT22;18701;45.588;5.288;2024-02-04T09:06:25;4.90;99.90
32201;DHT22;18701;45.588;5.288;2024-02-04T09:08:51;4.90;99.90
32201;DHT22;18701;45.588;5.288;2024-02-04T09:11:17;5.10;99.90
32201;DHT22;18701;45.588;5.288;2024-02-04T09:13:47;4.90;99.90
32201;DHT22;18701;45.588;5.288;2024-02-04T09:16:13;5.00;99.90
32201;DHT22;18701;45.588;5.288;2024-02-04T09:18:38;5.00;99.90
32201;DHT22;18701;45.588;5.288;2024-02-04T09:21:04;5.00;99.90
32201;DHT22;18701;45.588;5.288;2024-02-04T09:23:30;5.00;99.90
32201;DHT22;18701;45.588;5.288;2024-02-04T09:25:55;5.00;99.90
32201;DHT22;18701;45.588;5.288;2024-02-04T09:28:21;5.10;99.90
32201;DHT22;18701;45.588;5.288;2024-02-04T09:30:47;5.20;99.90
32201;DHT22;18701;45.588;5.288;2024-02-04T09:33:13;5.10;99.90
32201;DHT22;18701;45.588;5.288;2024-02-04T09:35:40;5.20;99.90
32201;DHT22;18701;45.588;5.288;2024-02-04T09:38:06;5.20;99.90
32201;DHT22;18701;45.588;5.288;2024-02-04T09:40:31;5.00;99.90
32201;DHT22;18701;45.588;5.288;2024-02-04T09:42:58;5.10;99.90
32201;DHT22;18701;45.588;5.288;2024-02-04T09:45:24;4.90;99.90
32201;DHT22;18701;45.588;5.288;2024-02-04T09:47:53;5.10;99.90
32201;DHT22;18701;45.588;5.288;2024-02-04T09:50:22;5.20;99.90
32201;DHT22;18701;45.588;5.288;2024-02-04T09:52:57;5.30;99.90
32201;DHT22;18701;45.588;5.288;2024-02-04T09:55:24;5.30;99.90
32201;DHT22;18701;45.588;5.288;2024-02-04T09:57:50;5.20;99.90
32201;DHT22;18701;45.588;5.288;2024-02-04T10:00:19;5.00;99.90
32201;DHT22;18701;45.588;5.288;2024-02-04T10:02:48;5.00;99.90
32201;DHT22;18701;45.588;5.288;2024-02-04T10:05:15;5.00;99.90
32201;DHT22;18701;45.588;5.288;2024-02-04T10:07:40;5.10;99.90
32201;DHT22;18701;45.588;5.288;2024-02-04T10:10:09;5.30;99.90
32201;DHT22;18701;45.588;5.288;2024-02-04T10:12:36;5.30;99.90
32201;DHT22;18701;45.588;5.288;2024-02-04T10:15:04;5.50;99.90
32201;DHT22;18701;45.588;5.288;2024-02-04T10:17:31;5.40;99.90
32201;DHT22;18701;45.588;5.288;2024-02-04T10:19:57;5.30;99.90
32201;DHT22;18701;45.588;5.288;2024-02-04T10:22:25;5.20;99.90
32201;DHT22;18701;45.588;5.288;2024-02-04T10:24:51;5.30;99.90
32201;DHT22;18701;45.588;5.288;2024-02-04T10:27:17;5.10;99.90
32201;DHT22;18701;45.588;5.288;2024-02-04T10:29:44;5.20;99.90
32201;DHT22;18701;45.588;5.288;2024-02-04T10:32:09;5.20;99.90
32201;DHT22;18701;45.588;5.288;2024-02-04T10:34:38;5.20;99.90
32201;DHT22;18701;45.588;5.288;2024-02-04T10:37:04;5.20;99.90
32201;DHT22;18701;45.588;5.288;2024-02-04T10:39:30;5.00;99.90
32201;DHT22;18701;45.588;5.288;2024-02-04T10:41:56;5.10;99.90
32201;DHT22;18701;45.588;5.288;2024-02-04T10:44:28;5.20;99.90
32201;DHT22;18701;45.588;5.288;2024-02-04T10:46:56;5.30;99.90
32201;DHT22;18701;45.588;5.288;2024-02-04T10:49:26;5.40;99.90
32201;DHT22;18701;45.588;5.288;2024-02-04T10:51:53;5.40;99.90
32201;DHT22;18701;45.588;5.288;2024-02-04T10:54:22;5.50;99.90
32201;DHT22;18701;45.588;5.288;2024-02-04T10:56:56;5.70;99.90
32201;DHT22;18701;45.588;5.288;2024-02-04T10:59:24;5.80;99.90
32201;DHT22;18701;45.588;5.288;2024-02-04T11:01:50;5.40;99.90
32201;DHT22;18701;45.588;5.288;2024-02-04T11:04:17;5.40;99.90
32201;DHT22;18701;45.588;5.288;2024-02-04T11:06:44;5.30;99.90
32201;DHT22;18701;45.588;5.288;2024-02-04T11:09:11;5.30;99.90
32201;DHT22;18701;45.588;5.288;2024-02-04T11:11:38;5.30;99.90
32201;DHT22;18701;45.588;5.288;2024-02-04T11:14:07;5.40;99.90
32201;DHT22;18701;45.588;5.288;2024-02-04T11:20:03;5.30;99.90
32201;DHT22;18701;45.588;5.288;2024-02-04T11:27:53;5.20;99.90
32201;DHT22;18701;45.588;5.288;2024-02-04T11:30:18;5.30;99.90
32201;DHT22;18701;45.588;5.288;2024-02-04T11:32:45;5.10;99.90
32201;DHT22;18701;45.588;5.288;2024-02-04T11:35:12;5.20;99.90
32201;DHT22;18701;45.588;5.288;2024-02-04T11:37:38;5.30;99.90
32201;DHT22;18701;45.588;5.288;2024-02-04T11:40:04;5.20;99.90
32201;DHT22;18701;45.588;5.288;2024-02-04T11:42:33;5.30;99.90
32201;DHT22;18701;45.588;5.288;2024-02-04T11:45:11;5.50;99.90
32201;DHT22;18701;45.588;5.288;2024-02-04T11:47:37;5.50;99.90
32201;DHT22;18701;45.588;5.288;2024-02-04T11:50:04;5.40;99.90
32201;DHT22;18701;45.588;5.288;2024-02-04T11:52:30;5.50;99.90
32201;DHT22;18701;45.588;5.288;2024-02-04T11:54:56;5.40;99.90
32201;DHT22;18701;45.588;5.288;2024-02-04T11:57:23;5.40;99.90
32201;DHT22;18701;45.588;5.288;2024-02-04T11:59:49;5.30;99.90
32201;DHT22;18701;45.588;5.288;2024-02-04T12:02:16;5.30;99.90
32201;DHT22;18701;45.588;5.288;2024-02-04T12:04:45;5.50;99.90
32201;DHT22;18701;45.588;5.288;2024-02-04T12:07:13;5.70;99.90
32201;DHT22;18701;45.588;5.288;2024-02-04T12:09:40;5.70;99.90
32201;DHT22;18701;45.588;5.288;2024-02-04T12:12:06;5.80;99.90
32201;DHT22;18701;45.588;5.288;2024-02-04T12:14:32;5.70;99.90
32201;DHT22;18701;45.588;5.288;2024-02-04T12:17:09;5.60;99.90
32201;DHT22;18701;45.588;5.288;2024-02-04T12:19:35;5.70;99.90
32201;DHT22;18701;45.588;5.288;2024-02-04T12:22:01;5.90;99.90
32201;DHT22;18701;45.588;5.288;2024-02-04T12:24:31;5.80;99.90
32201;DHT22;18701;45.588;5.288;2024-02-04T12:26:57;5.80;99.90
32201;DHT22;18701;45.588;5.288;2024-02-04T12:29:22;5.80;99.90
32201;DHT22;18701;45.588;5.288;2024-02-04T12:31:48;5.90;99.90
32201;DHT22;18701;45.588;5.288;2024-02-04T12:34:22;5.80;99.90
32201;DHT22;18701;45.588;5.288;2024-02-04T12:36:58;5.60;99.90
32201;DHT22;18701;45.588;5.288;2024-02-04T12:39:24;5.70;99.90
32201;DHT22;18701;45.588;5.288;2024-02-04T12:41:53;5.90;99.90
32201;DHT22;18701;45.588;5.288;2024-02-04T12:44:19;5.80;99.90
32201;DHT22;18701;45.588;5.288;2024-02-04T12:46:44;5.70;99.90
32201;DHT22;18701;45.588;5.288;2024-02-04T12:49:16;5.90;99.90
32201;DHT22;18701;45.588;5.288;2024-02-04T12:51:43;6.10;99.90
32201;DHT22;18701;45.588;5.288;2024-02-04T12:54:10;6.10;99.90
32201;DHT22;18701;45.588;5.288;2024-02-04T12:56:52;6.20;99.90
32201;DHT22;18701;45.588;5.288;2024-02-04T12:59:41;6.20;99.90
32201;DHT22;18701;45.588;5.288;2024-02-04T13:02:07;6.30;99.90
32201;DHT22;18701;45.588;5.288;2024-02-04T13:04:38;6.40;99.90
32201;DHT22;18701;45.588;5.288;2024-02-04T13:07:08;6.20;99.90
32201;DHT22;18701;45.588;5.288;2024-02-04T13:09:38;6.30;99.90
32201;DHT22;18701;45.588;5.288;2024-02-04T13:12:08;6.10;99.90
32201;DHT22;18701;45.588;5.288;2024-02-04T13:14:34;5.80;99.90
32201;DHT22;18701;45.588;5.288;2024-02-04T13:17:00;5.90;99.90
32201;DHT22;18701;45.588;5.288;2024-02-04T13:19:35;6.00;99.90
32201;DHT22;18701;45.588;5.288;2024-02-04T13:22:05;6.10;99.90
32201;DHT22;18701;45.588;5.288;2024-02-04T13:24:39;6.00;99.90
32201;DHT22;18701;45.588;5.288;2024-02-04T13:27:05;6.00;99.90
32201;DHT22;18701;45.588;5.288;2024-02-04T13:29:37;6.00;99.90
32201;DHT22;18701;45.588;5.288;2024-02-04T13:32:02;6.10;99.90
32201;DHT22;18701;45.588;5.288;2024-02-04T13:34:28;6.20;99.90
32201;DHT22;18701;45.588;5.288;2024-02-04T13:36:54;6.20;99.90
32201;DHT22;18701;45.588;5.288;2024-02-04T13:39:19;6.20;99.90
32201;DHT22;18701;45.588;5.288;2024-02-04T13:41:45;6.10;99.90
32201;DHT22;18701;45.588;5.288;2024-02-04T13:44:11;6.00;99.90
32201;DHT22;18701;45.588;5.288;2024-02-04T13:46:36;6.00;99.90
32201;DHT22;18701;45.588;5.288;2024-02-04T13:49:04;6.00;99.90
32201;DHT22;18701;45.588;5.288;2024-02-04T13:51:30;6.10;99.90
32201;DHT22;18701;45.588;5.288;2024-02-04T13:53:55;6.10;99.90
32201;DHT22;18701;45.588;5.288;2024-02-04T13:56:21;6.00;99.90
32201;DHT22;18701;45.588;5.288;2024-02-04T13:58:47;6.00;99.90
32201;DHT22;18701;45.588;5.288;2024-02-04T14:01:12;6.00;99.90
32201;DHT22;18701;45.588;5.288;2024-02-04T14:03:38;6.00;99.90
32201;DHT22;18701;45.588;5.288;2024-02-04T14:06:04;6.10;99.90
32201;DHT22;18701;45.588;5.288;2024-02-04T14:08:30;5.90;99.90
32201;DHT22;18701;45.588;5.288;2024-02-04T14:10:58;5.80;99.90
32201;DHT22;18701;45.588;5.288;2024-02-04T14:13:24;5.90;99.90
32201;DHT22;18701;45.588;5.288;2024-02-04T14:15:49;6.10;99.90
32201;DHT22;18701;45.588;5.288;2024-02-04T14:18:17;5.80;99.90
32201;DHT22;18701;45.588;5.288;2024-02-04T14:20:43;6.00;99.90
32201;DHT22;18701;45.588;5.288;2024-02-04T14:23:08;6.20;99.90
32201;DHT22;18701;45.588;5.288;2024-02-04T14:25:34;6.30;99.90
32201;DHT22;18701;45.588;5.288;2024-02-04T14:28:00;6.20;99.90
32201;DHT22;18701;45.588;5.288;2024-02-04T14:30:25;6.20;99.90
32201;DHT22;18701;45.588;5.288;2024-02-04T14:32:51;6.20;99.90
32201;DHT22;18701;45.588;5.288;2024-02-04T14:35:16;6.30;99.90
32201;DHT22;18701;45.588;5.288;2024-02-04T14:37:42;6.30;99.90
32201;DHT22;18701;45.588;5.288;2024-02-04T14:40:08;6.40;99.90
32201;DHT22;18701;45.588;5.288;2024-02-04T14:42:34;6.30;99.90
32201;DHT22;18701;45.588;5.288;2024-02-04T14:45:00;6.30;99.90
32201;DHT22;18701;45.588;5.288;2024-02-04T14:47:26;6.40;99.90
32201;DHT22;18701;45.588;5.288;2024-02-04T14:49:53;6.40;99.90
32201;DHT22;18701;45.588;5.288;2024-02-04T14:52:19;6.30;99.90
32201;DHT22;18701;45.588;5.288;2024-02-04T14:54:44;6.40;99.90
32201;DHT22;18701;45.588;5.288;2024-02-04T14:57:10;6.30;99.90
32201;DHT22;18701;45.588;5.288;2024-02-04T14:59:36;6.20;99.90
32201;DHT22;18701;45.588;5.288;2024-02-04T15:02:06;6.20;99.90
32201;DHT22;18701;45.588;5.288;2024-02-04T15:04:32;6.10;99.90
32201;DHT22;18701;45.588;5.288;2024-02-04T15:06:59;6.00;99.90
32201;DHT22;18701;45.588;5.288;2024-02-04T15:09:24;6.10;99.90
32201;DHT22;18701;45.588;5.288;2024-02-04T15:11:51;6.10;99.90
32201;DHT22;18701;45.588;5.288;2024-02-04T15:14:17;6.10;99.90
32201;DHT22;18701;45.588;5.288;2024-02-04T15:16:43;6.10;99.90
32201;DHT22;18701;45.588;5.288;2024-02-04T15:19:09;6.20;99.90
32201;DHT22;18701;45.588;5.288;2024-02-04T15:21:35;6.10;99.90
32201;DHT22;18701;45.588;5.288;2024-02-04T15:24:01;6.10;99.90
32201;DHT22;18701;45.588;5.288;2024-02-04T15:26:31;6.10;99.90
32201;DHT22;18701;45.588;5.288;2024-02-04T15:29:02;6.10;99.90
32201;DHT22;18701;45.588;5.288;2024-02-04T15:31:28;6.20;99.90
32201;DHT22;18701;45.588;5.288;2024-02-04T15:33:55;6.20;99.90
32201;DHT22;18701;45.588;5.288;2024-02-04T15:36:20;6.20;99.90
32201;DHT22;18701;45.588;5.288;2024-02-04T15:38:47;6.10;99.90
32201;DHT22;18701;45.588;5.288;2024-02-04T15:41:13;6.00;99.90
32201;DHT22;18701;45.588;5.288;2024-02-04T15:43:39;6.00;99.90
32201;DHT22;18701;45.588;5.288;2024-02-04T15:46:08;6.00;99.90
32201;DHT22;18701;45.588;5.288;2024-02-04T15:48:38;5.90;99.90
32201;DHT22;18701;45.588;5.288;2024-02-04T15:51:05;5.80;99.90
32201;DHT22;18701;45.588;5.288;2024-02-04T15:53:31;5.80;99.90
32201;DHT22;18701;45.588;5.288;2024-02-04T15:55:58;5.80;99.90